Gandy Spur, Louisiana
Current Conditions -  °F | °C
As of 3:56 PM on Sunday 23 Nov 2014 (Local Time) from KAQV Reporting Station
Clear Clear  
Wind Chill: 73°   Ceiling: Unl
Heat Index: 73°   Visibility: 10mi
Dew Point: 59°   Wind: 7mph
Humidity: 61%   Direction: 190°S
Pressure: 29.49"   Gusts: NA
Location:  31.4159°N, 93.4621°W
Report Text: KAQV 232156Z AUTO 19006KT 10SM CLR 23/15 A2949 RMK AO2 SLP983 T02280150 PNO $
Loading
Personal Weather Stations






























Interactive Weather Map New forecast layout! Learn more

10-Day Weather Forecast

Advertisements
Track Severe Weather on mobile